createdAt,value
2024-01-17T00:00:05.652Z,64.96
2024-01-17T00:02:56.797Z,65.36
2024-01-17T00:05:27.737Z,65.52
2024-01-17T00:07:58.555Z,65.65
2024-01-17T00:10:30.005Z,65.81
2024-01-17T00:13:00.866Z,66.13
2024-01-17T00:15:31.871Z,66.06
2024-01-17T00:18:02.905Z,66.23
2024-01-17T00:20:33.828Z,65.97
2024-01-17T00:23:05.088Z,66.11
2024-01-17T00:25:35.917Z,66.55
2024-01-17T00:28:07.742Z,66.56
2024-01-17T00:30:38.574Z,66.92
2024-01-17T00:33:09.887Z,67.00
2024-01-17T00:35:40.993Z,67.56
2024-01-17T00:38:12.029Z,89.54
2024-01-17T00:40:42.961Z,77.37
2024-01-17T00:43:13.729Z,69.82
2024-01-17T00:45:44.443Z,68.94
2024-01-17T00:48:15.712Z,67.46
2024-01-17T00:50:46.626Z,66.83
2024-01-17T00:53:17.536Z,66.57
2024-01-17T00:55:49.324Z,66.49
2024-01-17T00:58:20.382Z,66.51
2024-01-17T01:00:51.358Z,66.81
2024-01-17T01:03:22.481Z,66.66
2024-01-17T01:05:53.403Z,67.18
2024-01-17T01:08:24.286Z,67.15
2024-01-17T01:10:55.161Z,67.33
2024-01-17T01:13:25.964Z,67.29
2024-01-17T01:15:56.687Z,67.29
2024-01-17T01:18:27.699Z,67.20
2024-01-17T01:20:59.002Z,67.27
2024-01-17T01:23:30.762Z,67.12
2024-01-17T01:26:01.518Z,66.83
2024-01-17T01:28:32.630Z,66.57
2024-01-17T01:31:03.701Z,67.16
2024-01-17T01:33:34.716Z,67.17
2024-01-17T01:36:06.878Z,67.52
2024-01-17T01:38:37.865Z,67.81
2024-01-17T01:41:08.970Z,67.54
2024-01-17T01:43:39.802Z,67.71
2024-01-17T01:46:20.252Z,67.93
2024-01-17T01:48:52.320Z,68.20
2024-01-17T01:51:24.330Z,67.96
2024-01-17T01:53:57.741Z,68.33
2024-01-17T01:56:31.568Z,68.70
2024-01-17T01:59:03.441Z,68.18
2024-01-17T02:01:35.034Z,68.22
2024-01-17T02:04:06.610Z,68.62
2024-01-17T02:06:38.365Z,68.72
2024-01-17T02:09:10.065Z,68.74
2024-01-17T02:11:41.422Z,68.72
2024-01-17T02:14:14.058Z,69.09
2024-01-17T02:16:47.512Z,69.36
2024-01-17T02:19:20.047Z,69.81
2024-01-17T02:21:50.956Z,69.69
2024-01-17T02:24:24.487Z,69.58
2024-01-17T02:26:55.748Z,69.79
2024-01-17T02:29:26.750Z,69.97
2024-01-17T02:31:58.837Z,69.49
2024-01-17T02:34:30.558Z,69.54
2024-01-17T02:37:01.441Z,69.65
2024-01-17T02:39:32.301Z,69.38
2024-01-17T02:42:03.242Z,69.84
2024-01-17T02:44:34.519Z,69.91
2024-01-17T02:47:05.768Z,70.32
2024-01-17T02:49:36.909Z,70.00
2024-01-17T02:52:08.536Z,69.92
2024-01-17T02:54:39.486Z,70.34
2024-01-17T02:57:10.338Z,70.26
2024-01-17T02:59:43.421Z,69.92
2024-01-17T03:02:14.588Z,70.13
2024-01-17T03:04:45.410Z,70.18
2024-01-17T03:07:16.303Z,69.98
2024-01-17T03:09:47.096Z,70.23
2024-01-17T03:12:18.203Z,70.53
2024-01-17T03:14:49.074Z,70.42
2024-01-17T03:17:20.568Z,70.84
2024-01-17T03:19:51.414Z,70.44
2024-01-17T03:22:22.190Z,70.54
2024-01-17T03:24:52.973Z,70.55
2024-01-17T03:27:23.770Z,70.25
2024-01-17T03:29:54.695Z,71.04
2024-01-17T03:32:25.742Z,70.80
2024-01-17T03:34:57.307Z,71.01
2024-01-17T03:37:28.195Z,71.39
2024-01-17T03:39:59.538Z,72.21
2024-01-17T03:42:30.381Z,72.23
2024-01-17T03:45:01.374Z,71.57
2024-01-17T03:47:32.458Z,71.37
2024-01-17T03:50:03.409Z,71.23
2024-01-17T03:52:34.229Z,71.01
2024-01-17T03:55:05.875Z,70.86
2024-01-17T03:57:36.774Z,71.06
2024-01-17T04:00:11.517Z,70.85
2024-01-17T04:02:41.235Z,71.14
2024-01-17T04:05:12.211Z,71.14
2024-01-17T04:07:43.081Z,71.41
2024-01-17T04:10:16.666Z,71.58
2024-01-17T04:12:47.533Z,71.74
2024-01-17T04:15:18.848Z,71.62
2024-01-17T04:17:49.877Z,72.20
2024-01-17T04:20:21.443Z,72.04
2024-01-17T04:22:52.209Z,71.83
2024-01-17T04:25:23.341Z,71.81
2024-01-17T04:27:54.106Z,72.10
2024-01-17T04:30:25.366Z,72.43
2024-01-17T04:32:56.373Z,72.24
2024-01-17T04:35:27.331Z,71.42
2024-01-17T04:37:58.425Z,71.60
2024-01-17T04:40:29.289Z,72.57
2024-01-17T04:43:00.635Z,72.37
2024-01-17T04:45:31.896Z,73.79
2024-01-17T04:48:04.102Z,73.34
2024-01-17T04:50:35.666Z,73.60
2024-01-17T04:53:07.113Z,73.58
2024-01-17T04:55:40.843Z,73.16
2024-01-17T04:58:11.644Z,72.11
2024-01-17T05:00:46.542Z,72.02
2024-01-17T05:03:18.340Z,72.86
2024-01-17T05:05:49.263Z,72.71
2024-01-17T05:08:20.416Z,72.26
2024-01-17T05:10:51.265Z,71.36
2024-01-17T05:13:22.150Z,71.00
2024-01-17T05:15:53.762Z,70.89
2024-01-17T05:18:25.116Z,71.10
2024-01-17T05:20:56.927Z,71.83
2024-01-17T05:23:27.922Z,72.20
2024-01-17T05:25:59.000Z,71.94
2024-01-17T05:28:29.844Z,71.39
2024-01-17T05:31:01.029Z,71.29
2024-01-17T05:33:32.012Z,71.23
2024-01-17T05:36:03.084Z,71.26
2024-01-17T05:38:33.984Z,71.18
2024-01-17T05:41:05.273Z,71.03
2024-01-17T05:43:36.363Z,70.97
2024-01-17T05:46:09.022Z,70.95
2024-01-17T05:48:40.711Z,70.67
2024-01-17T05:51:13.998Z,70.34
2024-01-17T05:53:45.056Z,70.55
2024-01-17T05:56:15.889Z,70.39
2024-01-17T05:58:46.886Z,70.58
2024-01-17T06:01:17.703Z,70.72
2024-01-17T06:03:48.786Z,70.99
2024-01-17T06:06:19.886Z,70.57
2024-01-17T06:08:50.894Z,70.86
2024-01-17T06:11:21.840Z,70.95
2024-01-17T06:13:54.463Z,71.53
2024-01-17T06:16:25.663Z,71.59
2024-01-17T06:19:00.813Z,71.18
2024-01-17T06:21:31.678Z,71.38
2024-01-17T06:24:02.742Z,71.55
2024-01-17T06:26:33.901Z,71.54
2024-01-17T06:29:04.770Z,71.65
2024-01-17T06:31:35.587Z,71.87
2024-01-17T06:34:06.636Z,71.98
2024-01-17T06:36:37.814Z,71.83
2024-01-17T06:39:08.730Z,72.01
2024-01-17T06:41:40.101Z,72.09
2024-01-17T06:44:11.232Z,71.89
2024-01-17T06:46:42.970Z,72.01
2024-01-17T06:49:13.936Z,71.67
2024-01-17T06:51:45.326Z,71.62
2024-01-17T06:54:16.248Z,71.66
2024-01-17T06:56:47.202Z,71.69
2024-01-17T06:59:18.921Z,71.42
2024-01-17T07:01:49.801Z,70.47
2024-01-17T07:04:20.856Z,70.79
2024-01-17T07:06:52.051Z,71.45
2024-01-17T07:09:23.364Z,71.24
2024-01-17T07:11:54.346Z,71.27
2024-01-17T07:14:25.317Z,71.81
2024-01-17T07:16:56.086Z,72.15
2024-01-17T07:19:26.999Z,72.30
2024-01-17T07:21:57.842Z,72.46
2024-01-17T07:24:28.643Z,72.26
2024-01-17T07:27:01.946Z,71.92
2024-01-17T07:29:33.151Z,71.74
2024-01-17T07:32:04.847Z,72.21
2024-01-17T07:34:36.196Z,74.38
2024-01-17T07:37:07.606Z,93.36
2024-01-17T07:39:38.466Z,99.38
2024-01-17T07:42:09.954Z,87.84
2024-01-17T07:44:41.175Z,82.01
2024-01-17T07:47:11.933Z,78.28
2024-01-17T07:49:42.916Z,74.99
2024-01-17T07:52:13.688Z,72.75
2024-01-17T07:54:44.632Z,70.99
2024-01-17T07:57:15.538Z,70.95
2024-01-17T07:59:46.421Z,70.63
2024-01-17T08:02:18.490Z,69.98
2024-01-17T08:04:50.482Z,69.62
2024-01-17T08:07:25.865Z,69.73
2024-01-17T08:10:01.149Z,69.63
2024-01-17T08:12:32.986Z,69.55
2024-01-17T08:15:04.012Z,69.30
2024-01-17T08:17:35.133Z,69.10
2024-01-17T08:20:08.590Z,68.79
2024-01-17T08:22:39.644Z,68.30
2024-01-17T08:25:11.767Z,67.95
2024-01-17T08:27:42.880Z,67.77
2024-01-17T08:30:16.502Z,67.42
2024-01-17T08:32:47.583Z,67.06
2024-01-17T08:35:18.768Z,66.59
2024-01-17T08:37:49.609Z,65.97
2024-01-17T08:40:20.374Z,65.97
2024-01-17T08:42:51.213Z,65.55
2024-01-17T08:45:22.232Z,65.11
2024-01-17T08:47:53.159Z,64.84
2024-01-17T08:50:24.225Z,64.73
2024-01-17T08:52:55.121Z,63.92
2024-01-17T08:55:25.879Z,64.10
2024-01-17T08:57:56.967Z,63.92
2024-01-17T09:00:27.896Z,63.91
2024-01-17T09:02:58.826Z,63.55
2024-01-17T09:05:29.829Z,63.18
2024-01-17T09:08:00.859Z,63.06
2024-01-17T09:10:31.896Z,63.05
2024-01-17T09:13:02.709Z,62.96
2024-01-17T09:15:33.602Z,62.58
2024-01-17T09:18:05.793Z,62.47
2024-01-17T09:20:36.967Z,61.92
2024-01-17T09:23:07.890Z,61.71
2024-01-17T09:25:38.943Z,61.48
2024-01-17T09:28:10.738Z,61.20
2024-01-17T09:30:41.561Z,60.84
2024-01-17T09:33:12.680Z,60.64
2024-01-17T09:35:53.968Z,59.69
2024-01-17T09:38:29.098Z,59.41
2024-01-17T09:41:00.092Z,59.45
2024-01-17T09:43:31.497Z,59.33
2024-01-17T09:46:05.851Z,59.36
2024-01-17T09:48:36.776Z,59.09
2024-01-17T09:51:08.723Z,58.66
2024-01-17T09:53:40.991Z,58.95
2024-01-17T09:56:13.373Z,59.10
2024-01-17T09:58:47.874Z,58.83
2024-01-17T10:01:20.350Z,58.66
2024-01-17T10:03:53.608Z,58.79
2024-01-17T10:06:27.566Z,58.30
2024-01-17T10:09:00.081Z,58.46
2024-01-17T10:11:30.955Z,58.55
2024-01-17T10:14:02.321Z,58.59
2024-01-17T10:16:33.457Z,58.53
2024-01-17T10:19:07.355Z,58.37
2024-01-17T10:21:38.569Z,58.52
2024-01-17T10:24:11.173Z,58.23
2024-01-17T10:26:45.683Z,58.23
2024-01-17T10:29:16.625Z,57.91
2024-01-17T10:31:47.699Z,57.65
2024-01-17T10:34:19.105Z,57.51
2024-01-17T10:36:50.233Z,56.67
2024-01-17T10:39:26.494Z,55.98
2024-01-17T10:42:00.606Z,56.11
2024-01-17T10:44:31.551Z,56.16
2024-01-17T10:47:02.425Z,55.28
2024-01-17T10:49:33.862Z,55.55
2024-01-17T10:52:10.576Z,55.39
2024-01-17T10:54:51.290Z,55.01
2024-01-17T10:57:23.789Z,55.60
2024-01-17T10:59:54.669Z,55.62
2024-01-17T11:02:25.916Z,55.48
2024-01-17T11:05:00.788Z,55.75
2024-01-17T11:07:33.345Z,55.40
2024-01-17T11:10:07.025Z,55.68
2024-01-17T11:12:40.260Z,55.82
2024-01-17T11:15:13.120Z,56.06
2024-01-17T11:17:48.008Z,56.14
2024-01-17T11:20:20.743Z,56.11
2024-01-17T11:22:52.424Z,56.00
2024-01-17T11:25:29.995Z,56.21
2024-01-17T11:28:07.053Z,56.30
2024-01-17T11:30:54.409Z,56.13
2024-01-17T11:33:27.256Z,56.08
2024-01-17T11:35:58.393Z,56.51
2024-01-17T11:38:36.862Z,56.20
2024-01-17T11:41:10.545Z,56.38
2024-01-17T11:43:43.953Z,56.28
2024-01-17T11:46:15.167Z,56.31
2024-01-17T11:48:48.821Z,56.45
2024-01-17T11:51:27.049Z,56.84
2024-01-17T11:53:59.590Z,56.35
2024-01-17T11:56:31.284Z,56.55
2024-01-17T11:59:13.899Z,56.78
2024-01-17T12:01:45.985Z,56.91
2024-01-17T12:04:18.722Z,56.71
2024-01-17T12:06:54.283Z,56.70
2024-01-17T12:09:28.069Z,56.68
2024-01-17T12:12:02.415Z,56.62
2024-01-17T12:14:37.592Z,56.87
2024-01-17T12:17:09.024Z,56.69
2024-01-17T12:19:39.899Z,56.78
2024-01-17T12:22:11.394Z,56.65
2024-01-17T12:24:50.615Z,56.53
2024-01-17T12:27:22.442Z,56.63
2024-01-17T12:29:56.123Z,56.93
2024-01-17T12:32:27.304Z,56.62
2024-01-17T12:34:58.745Z,56.63
2024-01-17T12:37:31.433Z,56.48
2024-01-17T12:40:02.196Z,56.38
2024-01-17T12:42:34.580Z,56.25
2024-01-17T12:45:07.462Z,56.32
2024-01-17T12:47:39.505Z,56.34
2024-01-17T12:50:15.689Z,56.27
2024-01-17T12:52:47.550Z,56.32
2024-01-17T12:55:23.204Z,56.28
2024-01-17T12:57:54.160Z,56.47
2024-01-17T13:00:28.616Z,56.64
2024-01-17T13:02:59.990Z,56.59
2024-01-17T13:05:31.263Z,56.71
2024-01-17T13:08:13.080Z,56.80
2024-01-17T13:10:44.993Z,56.86
2024-01-17T13:13:21.448Z,56.94
2024-01-17T13:15:57.864Z,57.06
2024-01-17T13:18:30.500Z,57.11
2024-01-17T13:21:14.271Z,57.40
2024-01-17T13:23:45.234Z,57.50
2024-01-17T13:26:18.367Z,57.34
2024-01-17T13:28:49.495Z,57.66
2024-01-17T13:31:21.098Z,57.72
2024-01-17T13:33:53.305Z,61.99
2024-01-17T13:36:24.448Z,59.87
2024-01-17T13:38:55.809Z,58.79
2024-01-17T13:41:27.677Z,58.58
2024-01-17T13:43:58.959Z,58.82
2024-01-17T13:46:30.564Z,58.95
2024-01-17T13:49:01.711Z,58.63
2024-01-17T13:51:35.847Z,58.80
2024-01-17T13:54:16.531Z,58.67
2024-01-17T13:56:46.337Z,58.98
2024-01-17T13:59:17.256Z,58.90
2024-01-17T14:01:48.206Z,58.95
2024-01-17T14:04:19.635Z,59.13
2024-01-17T14:06:50.674Z,59.28
2024-01-17T14:09:25.266Z,59.55
2024-01-17T14:11:57.643Z,59.75
2024-01-17T14:14:28.484Z,59.93
2024-01-17T14:16:59.312Z,60.24
2024-01-17T14:19:31.657Z,60.78
2024-01-17T14:22:02.750Z,61.50
2024-01-17T14:24:33.727Z,62.49
2024-01-17T14:27:06.133Z,62.82
2024-01-17T14:29:37.210Z,63.67
2024-01-17T14:32:09.087Z,64.87
2024-01-17T14:34:40.079Z,65.72
2024-01-17T14:37:10.994Z,66.30
2024-01-17T14:39:44.058Z,66.99
2024-01-17T14:42:17.504Z,67.58
2024-01-17T14:44:48.433Z,67.97
2024-01-17T14:47:19.326Z,68.63
2024-01-17T14:49:51.019Z,69.27
2024-01-17T14:52:22.520Z,69.24
2024-01-17T14:54:53.262Z,69.64
2024-01-17T14:57:24.121Z,69.80
2024-01-17T14:59:55.786Z,69.96
2024-01-17T15:02:26.615Z,70.30
2024-01-17T15:04:57.821Z,70.46
2024-01-17T15:07:31.045Z,70.57
2024-01-17T15:10:02.097Z,70.73
2024-01-17T15:12:32.925Z,70.89
2024-01-17T15:15:04.435Z,70.68
2024-01-17T15:17:35.262Z,71.08
2024-01-17T15:20:11.002Z,71.14
2024-01-17T15:22:42.409Z,71.41
2024-01-17T15:25:13.725Z,71.37
2024-01-17T15:27:44.534Z,71.36
2024-01-17T15:30:17.198Z,71.50
2024-01-17T15:32:48.600Z,71.41
2024-01-17T15:35:19.743Z,71.48
2024-01-17T15:37:52.313Z,71.21
2024-01-17T15:40:23.324Z,71.22
2024-01-17T15:42:54.149Z,71.40
2024-01-17T15:45:25.136Z,71.35
2024-01-17T15:47:56.059Z,71.13
2024-01-17T15:50:27.403Z,70.95
2024-01-17T15:52:58.309Z,70.96
2024-01-17T15:55:29.184Z,71.09
2024-01-17T15:57:59.987Z,71.05
2024-01-17T16:00:32.079Z,71.03
2024-01-17T16:03:03.383Z,71.20
2024-01-17T16:05:34.528Z,71.17
2024-01-17T16:08:05.869Z,71.23
2024-01-17T16:10:37.388Z,71.34
2024-01-17T16:13:08.488Z,71.28
2024-01-17T16:15:39.484Z,71.44
2024-01-17T16:18:11.262Z,71.77
2024-01-17T16:20:43.569Z,71.97
2024-01-17T16:23:14.801Z,72.28
2024-01-17T16:25:46.151Z,72.35
2024-01-17T16:28:17.513Z,72.50
2024-01-17T16:30:50.409Z,72.68
2024-01-17T16:33:21.301Z,72.98
2024-01-17T16:35:52.389Z,73.22
2024-01-17T16:38:23.431Z,73.47
2024-01-17T16:40:54.325Z,73.53
2024-01-17T16:43:25.221Z,73.90
2024-01-17T16:45:58.726Z,74.04
2024-01-17T16:48:30.350Z,74.29
2024-01-17T16:51:03.674Z,74.36
2024-01-17T16:53:35.887Z,74.79
2024-01-17T16:56:07.953Z,74.99
2024-01-17T16:58:38.844Z,75.01
2024-01-17T17:01:09.750Z,74.97
2024-01-17T17:03:40.826Z,75.31
2024-01-17T17:06:11.811Z,75.44
2024-01-17T17:08:42.777Z,76.07
2024-01-17T17:11:13.865Z,76.04
2024-01-17T17:13:44.785Z,76.53
2024-01-17T17:16:15.595Z,76.66
2024-01-17T17:18:46.832Z,76.70
2024-01-17T17:21:18.091Z,76.71
2024-01-17T17:23:49.147Z,77.04
2024-01-17T17:26:21.124Z,76.94
2024-01-17T17:28:53.844Z,77.21
2024-01-17T17:31:24.850Z,77.17
2024-01-17T17:33:56.244Z,77.44
2024-01-17T17:36:29.006Z,77.49
2024-01-17T17:39:01.372Z,77.49
2024-01-17T17:41:32.768Z,77.37
2024-01-17T17:44:04.469Z,77.27
2024-01-17T17:46:37.611Z,77.43
2024-01-17T17:49:11.774Z,77.48
2024-01-17T17:51:42.815Z,77.35
2024-01-17T17:54:13.596Z,77.31
2024-01-17T17:56:45.679Z,77.32
2024-01-17T17:59:16.559Z,77.41
2024-01-17T18:01:48.392Z,77.36
2024-01-17T18:04:24.268Z,77.46
2024-01-17T18:06:56.724Z,77.52
2024-01-17T18:09:27.756Z,77.49
2024-01-17T18:12:00.031Z,77.57
2024-01-17T18:14:31.469Z,80.02
2024-01-17T18:17:02.371Z,79.83
2024-01-17T18:19:34.403Z,78.56
2024-01-17T18:22:05.742Z,78.08
2024-01-17T18:24:36.480Z,78.01
2024-01-17T18:27:08.030Z,78.28
2024-01-17T18:29:38.976Z,78.22
2024-01-17T18:32:10.208Z,78.41
2024-01-17T18:34:49.311Z,78.69
2024-01-17T18:37:21.113Z,78.64
2024-01-17T18:39:52.203Z,78.79
2024-01-17T18:42:23.140Z,78.78
2024-01-17T18:44:54.343Z,79.04
2024-01-17T18:47:25.497Z,78.96
2024-01-17T18:49:56.326Z,78.81
2024-01-17T18:52:27.218Z,78.96
2024-01-17T18:54:58.236Z,79.05
2024-01-17T18:57:30.610Z,79.20
2024-01-17T19:00:01.718Z,79.21
2024-01-17T19:02:32.807Z,79.12
2024-01-17T19:05:04.493Z,79.35
2024-01-17T19:07:35.808Z,79.43
2024-01-17T19:10:09.417Z,79.38
2024-01-17T19:12:40.598Z,79.57
2024-01-17T19:15:12.134Z,79.57
2024-01-17T19:17:43.615Z,79.52
2024-01-17T19:20:15.346Z,79.34
2024-01-17T19:22:46.159Z,79.64
2024-01-17T19:25:20.092Z,79.57
2024-01-17T19:27:51.085Z,79.65
2024-01-17T19:30:24.529Z,79.62
2024-01-17T19:32:55.815Z,79.71
2024-01-17T19:35:27.471Z,79.96
2024-01-17T19:38:02.263Z,80.00
2024-01-17T19:40:36.373Z,80.10
2024-01-17T19:43:09.788Z,80.20
2024-01-17T19:45:42.677Z,80.54
2024-01-17T19:48:13.591Z,80.45
2024-01-17T19:50:44.774Z,80.79
2024-01-17T19:53:15.667Z,80.70
2024-01-17T19:55:46.599Z,80.84
2024-01-17T19:58:17.667Z,81.23
2024-01-17T20:00:50.331Z,81.08
2024-01-17T20:03:21.232Z,81.30
2024-01-17T20:05:52.598Z,81.45
2024-01-17T20:08:24.004Z,81.88
2024-01-17T20:10:54.857Z,82.08
2024-01-17T20:13:25.791Z,82.26
2024-01-17T20:15:56.488Z,82.03
2024-01-17T20:18:27.451Z,82.38
2024-01-17T20:20:58.340Z,82.44
2024-01-17T20:23:29.248Z,82.35
2024-01-17T20:26:00.431Z,82.54
2024-01-17T20:28:32.258Z,82.85
2024-01-17T20:31:03.066Z,82.90
2024-01-17T20:33:34.002Z,82.79
2024-01-17T20:36:05.437Z,82.66
2024-01-17T20:38:37.265Z,82.91
2024-01-17T20:41:13.742Z,83.05
2024-01-17T20:43:45.072Z,83.13
2024-01-17T20:46:17.043Z,83.12
2024-01-17T20:48:48.130Z,83.65
2024-01-17T20:51:27.012Z,83.39
2024-01-17T20:53:58.545Z,83.30
2024-01-17T20:56:30.032Z,83.62
2024-01-17T20:59:00.910Z,83.71
2024-01-17T21:01:33.461Z,83.41
2024-01-17T21:04:04.818Z,83.54
2024-01-17T21:06:35.812Z,83.92
2024-01-17T21:09:07.027Z,84.08
2024-01-17T21:11:38.034Z,83.89
2024-01-17T21:14:09.569Z,84.13
2024-01-17T21:16:40.538Z,84.34
2024-01-17T21:19:12.114Z,83.97
2024-01-17T21:21:44.302Z,83.80
2024-01-17T21:24:15.206Z,83.90
2024-01-17T21:26:46.135Z,84.09
2024-01-17T21:29:17.731Z,84.42
2024-01-17T21:31:48.642Z,84.86
2024-01-17T21:34:20.204Z,84.56
2024-01-17T21:36:52.368Z,84.77
2024-01-17T21:39:23.377Z,85.31
2024-01-17T21:41:54.736Z,85.64
2024-01-17T21:44:27.150Z,85.22
2024-01-17T21:47:02.081Z,85.24
2024-01-17T21:49:32.882Z,85.23
2024-01-17T21:52:05.056Z,85.38
2024-01-17T21:54:36.020Z,85.73
2024-01-17T21:57:07.693Z,85.69
2024-01-17T21:59:41.850Z,85.86
2024-01-17T22:02:13.839Z,85.86
2024-01-17T22:04:45.018Z,85.71
2024-01-17T22:07:16.434Z,85.72
2024-01-17T22:09:47.577Z,85.82
2024-01-17T22:12:20.906Z,85.56
2024-01-17T22:14:51.875Z,85.55
2024-01-17T22:17:22.994Z,85.85
2024-01-17T22:19:54.809Z,85.63
2024-01-17T22:22:25.777Z,85.52
2024-01-17T22:24:56.614Z,85.70
2024-01-17T22:27:27.808Z,85.89
2024-01-17T22:29:58.828Z,86.22
2024-01-17T22:32:30.658Z,86.52
2024-01-17T22:35:01.786Z,86.38
2024-01-17T22:37:32.813Z,87.07
2024-01-17T22:40:03.716Z,86.91
2024-01-17T22:42:34.761Z,86.70
2024-01-17T22:45:07.723Z,86.90
2024-01-17T22:47:38.773Z,86.71
2024-01-17T22:50:13.723Z,86.20
2024-01-17T22:52:45.252Z,86.45
2024-01-17T22:55:16.193Z,86.47
2024-01-17T22:57:47.339Z,86.32
2024-01-17T23:00:22.457Z,86.74
2024-01-17T23:02:54.893Z,86.66
2024-01-17T23:05:25.884Z,86.51
2024-01-17T23:08:02.227Z,86.94
2024-01-17T23:10:39.239Z,86.29
2024-01-17T23:13:10.351Z,86.19
2024-01-17T23:15:41.282Z,86.00
2024-01-17T23:18:12.511Z,86.42
2024-01-17T23:20:43.908Z,86.60
2024-01-17T23:23:15.903Z,86.80
2024-01-17T23:25:47.156Z,86.53
2024-01-17T23:28:18.028Z,86.38
2024-01-17T23:30:52.599Z,86.36
2024-01-17T23:33:24.151Z,86.14
2024-01-17T23:35:55.729Z,85.99
2024-01-17T23:38:27.226Z,86.23
2024-01-17T23:40:58.279Z,86.45
2024-01-17T23:43:33.824Z,86.14
2024-01-17T23:46:05.100Z,86.20
2024-01-17T23:48:36.154Z,86.76
2024-01-17T23:51:07.895Z,87.11
2024-01-17T23:53:38.868Z,86.57
2024-01-17T23:56:09.818Z,86.62
2024-01-17T23:58:42.136Z,86.58
